Time;durP1;ratioP1;P1;durP2;ratioP2;P2;SDS_P1;SDS_P2;PMS_P1;PMS_P2;Temp;Humidity;BMP_temperature;BMP_pressure;BME280_temperature;BME280_humidity;BME280_pressure;Samples;Min_cycle;Max_cycle;Signal;HPM_P1;HPM_P2
2022/03/16 10:14:07;;;;;;;34.87;31.20;;;12.70;99.90;;;;;;5069873;28;20423;-75
2022/03/16 10:17:43;;;;;;;32.27;29.07;;;12.70;99.90;;;;;;5069729;28;20466;-75
2022/03/16 10:19:24;;;;;;;34.17;30.93;;;12.30;99.90;;;;;;5069491;28;20478;-75
2022/03/16 10:21:58;;;;;;;35.47;31.57;;;12.20;99.90;;;;;;5069493;28;20463;-75
2022/03/16 10:24:29;;;;;;;33.90;30.43;;;12.60;99.90;;;;;;5069650;28;20542;-75
2022/03/16 10:26:58;;;;;;;32.03;28.73;;;12.90;99.90;;;;;;5069444;28;20451;-75
2022/03/16 10:29:26;;;;;;;31.73;28.63;;;12.80;99.90;;;;;;5069193;28;20451;-75
2022/03/16 10:32:01;;;;;;;32.73;29.70;;;12.60;99.90;;;;;;5068988;28;20803;-75
2022/03/16 10:34:28;;;;;;;29.93;27.13;;;12.60;99.90;;;;;;5069516;28;20443;-76
2022/03/16 10:36:55;;;;;;;31.50;28.40;;;12.50;99.90;;;;;;5069229;28;21012;-75
2022/03/16 10:39:32;;;;;;;31.97;28.83;;;12.60;99.90;;;;;;5068904;28;20582;-76
2022/03/16 10:47:55;;;;;;;29.53;27.00;;;13.50;99.90;;;;;;5069073;28;20933;-76
2022/03/16 10:50:22;;;;;;;30.60;27.70;;;13.90;99.90;;;;;;5069077;28;20447;-76
2022/03/16 10:52:50;;;;;;;29.77;27.20;;;14.30;99.90;;;;;;5068980;28;20448;-76
2022/03/16 10:55:17;;;;;;;29.60;27.10;;;14.70;99.90;;;;;;5069003;28;20495;-76
2022/03/16 10:57:47;;;;;;;28.77;26.27;;;15.50;99.90;;;;;;5068974;28;20459;-75
2022/03/16 11:00:15;;;;;;;28.83;26.47;;;16.00;99.90;;;;;;5068913;28;20453;-76
2022/03/16 11:02:44;;;;;;;29.40;26.90;;;16.20;99.90;;;;;;5068381;28;20477;-75
2022/03/16 11:05:12;;;;;;;30.40;27.83;;;14.90;99.90;;;;;;5068528;28;20453;-76
2022/03/16 11:07:40;;;;;;;29.37;26.80;;;14.60;99.90;;;;;;5068279;28;20505;-77
2022/03/16 11:10:08;;;;;;;29.70;27.20;;;14.20;99.90;;;;;;5066352;28;20853;-75
2022/03/16 11:15:21;;;;;;;30.33;27.73;;;14.50;99.90;;;;;;5054992;28;20420;-76
2022/03/16 11:17:48;;;;;;;31.57;28.77;;;15.00;99.90;;;;;;5054986;28;21017;-75
2022/03/16 11:20:15;;;;;;;30.53;27.33;;;15.20;99.90;;;;;;5055179;28;20454;-76
2022/03/16 11:25:33;;;;;;;29.83;26.87;;;14.90;99.90;;;;;;5054831;28;20432;-76
2022/03/16 11:28:00;;;;;;;26.20;24.10;;;14.80;99.90;;;;;;5055121;28;20547;-76
2022/03/16 11:30:33;;;;;;;27.33;25.03;;;14.70;99.90;;;;;;5055092;28;20484;-75
2022/03/16 11:33:04;;;;;;;29.83;26.87;;;14.50;99.90;;;;;;5055029;28;20460;-75
2022/03/16 11:35:33;;;;;;;31.77;28.23;;;14.70;99.90;;;;;;5054917;28;20936;-76
2022/03/16 11:38:10;;;;;;;27.93;25.63;;;15.30;99.90;;;;;;5054896;28;20451;-76
2022/03/16 11:40:40;;;;;;;30.67;27.77;;;15.90;99.90;;;;;;5054779;28;20441;-75
2022/03/16 11:43:19;;;;;;;27.27;25.17;;;15.90;99.90;;;;;;5054688;28;20949;-75
2022/03/16 11:45:50;;;;;;;29.03;26.33;;;15.70;99.90;;;;;;5054722;28;20543;-77
2022/03/16 11:48:56;;;;;;;30.33;27.77;;;15.60;99.90;;;;;;5054534;28;20462;-76
2022/03/16 11:51:25;;;;;;;29.67;27.10;;;15.30;99.90;;;;;;4993122;28;20448;-77
2022/03/16 11:54:11;;;;;;;30.97;28.20;;;15.20;99.90;;;;;;4993145;28;20530;-77
2022/03/16 11:56:48;;;;;;;30.37;27.57;;;14.90;99.90;;;;;;5031968;28;20449;-76
2022/03/16 11:59:32;;;;;;;29.77;27.27;;;14.60;99.90;;;;;;5054492;28;20528;-76
2022/03/16 12:02:18;;;;;;;27.67;25.37;;;14.50;99.90;;;;;;5054530;28;20473;-76
2022/03/16 12:04:46;;;;;;;30.13;27.43;;;14.40;99.90;;;;;;5054485;28;20449;-76
2022/03/16 12:07:17;;;;;;;28.07;25.60;;;14.80;99.90;;;;;;5054314;28;20457;-76
2022/03/16 12:09:45;;;;;;;29.93;26.80;;;14.80;99.90;;;;;;5054088;28;20488;-74
2022/03/16 12:15:27;;;;;;;29.33;26.67;;;14.80;99.90;;;;;;5054218;28;20844;-76
2022/03/16 12:18:28;;;;;;;27.97;25.53;;;14.60;99.90;;;;;;5053977;28;20452;-74
2022/03/16 12:21:07;;;;;;;27.70;25.20;;;14.60;99.90;;;;;;5049392;28;20478;-75
2022/03/16 12:23:52;;;;;;;27.33;25.03;;;14.70;99.90;;;;;;5053015;28;20443;-74
2022/03/16 12:26:22;;;;;;;28.17;25.77;;;14.50;99.90;;;;;;5053881;28;20441;-75
2022/03/16 12:28:56;;;;;;;28.30;25.80;;;14.30;99.90;;;;;;5053760;28;20940;-75
2022/03/16 12:31:22;;;;;;;26.93;24.80;;;14.10;99.90;;;;;;5053683;28;20473;-75
2022/03/16 12:33:53;;;;;;;27.57;25.20;;;14.10;99.90;;;;;;5053584;28;20977;-75
2022/03/16 12:36:21;;;;;;;27.03;24.73;;;14.00;99.90;;;;;;5053767;28;20480;-76
2022/03/16 12:38:50;;;;;;;28.30;25.77;;;13.90;99.90;;;;;;5053647;28;20453;-74
2022/03/16 12:44:06;;;;;;;29.10;26.50;;;13.40;99.90;;;;;;5053718;28;20938;-75
2022/03/16 12:46:38;;;;;;;27.07;24.50;;;13.50;99.90;;;;;;5053480;28;20461;-76
2022/03/16 12:49:07;;;;;;;28.47;26.00;;;13.60;99.90;;;;;;5053557;28;20452;-75
2022/03/16 12:51:34;;;;;;;28.90;26.40;;;13.70;99.90;;;;;;5053470;28;20463;-76
2022/03/16 12:54:01;;;;;;;28.67;26.33;;;13.90;99.90;;;;;;5053459;28;20448;-76
2022/03/16 12:56:28;;;;;;;29.27;26.40;;;13.80;99.90;;;;;;5053353;28;20852;-75
2022/03/16 12:58:56;;;;;;;28.10;25.60;;;13.80;99.90;;;;;;5053342;28;20506;-75
2022/03/16 13:01:24;;;;;;;27.00;24.60;;;13.70;99.90;;;;;;5053187;28;20464;-75
2022/03/16 13:04:00;;;;;;;27.33;24.93;;;13.90;99.90;;;;;;5053273;28;20456;-76
2022/03/16 13:06:32;;;;;;;26.93;24.37;;;13.80;99.90;;;;;;5053204;28;20535;-76
2022/03/16 13:08:59;;;;;;;26.83;24.57;;;13.70;99.90;;;;;;5053105;28;20811;-76
2022/03/16 13:11:29;;;;;;;27.67;25.13;;;13.90;99.90;;;;;;5053047;28;20480;-75
2022/03/16 13:14:05;;;;;;;24.97;23.07;;;14.20;99.90;;;;;;5053155;28;20457;-75
2022/03/16 13:16:38;;;;;;;26.00;23.73;;;14.20;99.90;;;;;;5052957;28;20811;-76
2022/03/16 13:19:06;;;;;;;28.23;25.93;;;14.10;99.90;;;;;;5053025;28;20452;-75
2022/03/16 13:21:36;;;;;;;27.57;25.07;;;14.10;99.90;;;;;;5053042;28;20443;-76
2022/03/16 13:24:08;;;;;;;26.23;23.73;;;14.30;99.90;;;;;;5052879;28;20452;-76
2022/03/16 13:26:37;;;;;;;26.77;24.50;;;14.60;99.90;;;;;;5053124;28;20575;-75
2022/03/16 13:29:08;;;;;;;26.13;23.93;;;14.70;99.90;;;;;;5052825;28;20981;-75
2022/03/16 13:31:36;;;;;;;25.00;22.80;;;14.80;99.90;;;;;;5052597;28;20485;-76
2022/03/16 13:34:05;;;;;;;25.43;22.97;;;15.10;99.90;;;;;;5052343;28;20502;-75
2022/03/16 13:36:44;;;;;;;27.10;24.80;;;14.90;99.90;;;;;;5052557;28;20453;-76
2022/03/16 13:39:23;;;;;;;26.97;24.77;;;14.80;99.90;;;;;;5052591;28;20444;-75
2022/03/16 13:42:12;;;;;;;25.23;23.23;;;14.80;99.90;;;;;;5052686;28;20451;-75
2022/03/16 13:44:40;;;;;;;25.70;23.50;;;15.00;99.90;;;;;;5052655;28;20468;-75
2022/03/16 13:47:23;;;;;;;23.53;21.70;;;15.70;99.90;;;;;;5052511;28;20548;-75
2022/03/16 13:49:51;;;;;;;26.17;24.00;;;16.20;99.90;;;;;;5050093;28;20852;-76
2022/03/16 13:52:20;;;;;;;25.20;23.00;;;16.30;99.90;;;;;;5052575;28;20458;-75
2022/03/16 13:54:48;;;;;;;25.20;22.90;;;16.00;99.90;;;;;;5052364;28;20453;-75
2022/03/16 13:57:17;;;;;;;26.23;24.20;;;15.80;99.90;;;;;;5052421;28;20495;-76
2022/03/16 13:59:55;;;;;;;25.83;23.60;;;15.50;99.90;;;;;;5052388;28;20452;-76
2022/03/16 14:02:23;;;;;;;28.20;25.70;;;15.50;99.90;;;;;;5052248;28;20602;-75
2022/03/16 14:04:57;;;;;;;26.03;23.77;;;15.40;99.90;;;;;;5052396;28;20523;-75
2022/03/16 14:07:28;;;;;;;26.53;24.20;;;15.30;99.90;;;;;;5052421;28;20452;-76
2022/03/16 14:09:56;;;;;;;27.77;25.20;;;15.30;99.90;;;;;;5052170;28;20492;-75
2022/03/16 14:12:24;;;;;;;27.67;25.17;;;15.30;99.90;;;;;;5052315;28;20548;-75
2022/03/16 14:15:01;;;;;;;28.07;25.57;;;15.10;99.90;;;;;;5052425;28;20452;-76
2022/03/16 14:17:51;;;;;;;29.07;26.37;;;15.10;99.90;;;;;;5052302;28;20509;-76
2022/03/16 14:20:20;;;;;;;27.00;24.50;;;15.10;99.90;;;;;;5052364;28;20582;-75
2022/03/16 14:22:52;;;;;;;25.83;23.73;;;14.90;99.90;;;;;;5052270;28;20933;-75
2022/03/16 14:25:30;;;;;;;27.63;25.13;;;14.90;99.90;;;;;;5052292;28;20455;-75
2022/03/16 14:27:58;;;;;;;25.47;23.20;;;14.80;99.90;;;;;;5052121;28;20452;-76
2022/03/16 14:30:26;;;;;;;25.33;23.13;;;14.70;99.90;;;;;;5052140;28;20513;-75
2022/03/16 14:32:57;;;;;;;26.77;24.70;;;14.60;99.90;;;;;;5052166;28;20484;-75
2022/03/16 14:35:24;;;;;;;27.07;24.83;;;14.50;99.90;;;;;;5052287;28;20460;-74
2022/03/16 14:37:52;;;;;;;29.03;26.63;;;14.20;99.90;;;;;;5052192;28;20456;-76
2022/03/16 14:40:22;;;;;;;25.83;23.63;;;13.90;99.90;;;;;;5052124;28;20455;-76
2022/03/16 14:42:49;;;;;;;25.47;22.80;;;13.70;99.90;;;;;;5052092;28;20459;-75
2022/03/16 14:45:16;;;;;;;28.10;24.93;;;13.60;99.90;;;;;;5052045;28;20506;-75
2022/03/16 14:47:43;;;;;;;25.87;23.67;;;13.70;99.90;;;;;;5055834;28;20452;-76
2022/03/16 14:50:11;;;;;;;22.73;20.83;;;13.50;99.90;;;;;;5055782;28;20999;-76
2022/03/16 14:52:38;;;;;;;24.43;22.43;;;13.60;99.90;;;;;;5055795;28;20445;-76
2022/03/16 14:55:08;;;;;;;21.87;20.10;;;13.50;99.90;;;;;;5055707;28;20998;-76
2022/03/16 14:57:34;;;;;;;25.13;23.03;;;13.40;99.90;;;;;;5055720;28;20520;-76
2022/03/16 15:00:01;;;;;;;25.13;23.03;;;13.30;99.90;;;;;;5055696;28;20448;-76
2022/03/16 15:02:28;;;;;;;24.17;22.10;;;13.40;99.90;;;;;;5055459;28;20479;-76
2022/03/16 15:04:59;;;;;;;25.07;23.07;;;13.50;99.90;;;;;;5055561;28;20509;-76
2022/03/16 15:07:26;;;;;;;25.13;23.17;;;13.50;99.90;;;;;;5055576;28;20452;-76
2022/03/16 15:09:53;;;;;;;24.93;22.93;;;13.40;99.90;;;;;;5055262;28;20488;-75
2022/03/16 15:12:21;;;;;;;25.33;23.23;;;13.40;99.90;;;;;;5055156;28;20455;-75
2022/03/16 15:14:47;;;;;;;24.10;22.07;;;13.40;99.90;;;;;;5042581;28;20463;-75
2022/03/16 15:17:14;;;;;;;23.40;21.30;;;13.50;99.90;;;;;;5054925;28;20448;-76
2022/03/16 15:19:41;;;;;;;26.27;23.77;;;13.50;99.90;;;;;;5055156;28;20440;-76
2022/03/16 15:22:08;;;;;;;26.53;24.30;;;13.40;99.90;;;;;;5055014;28;20444;-75
2022/03/16 15:24:36;;;;;;;24.63;22.43;;;13.40;99.90;;;;;;5054990;28;20993;-75
2022/03/16 15:27:03;;;;;;;26.87;24.57;;;13.30;99.90;;;;;;5055116;28;20505;-76
2022/03/16 15:29:31;;;;;;;25.70;23.20;;;13.10;99.90;;;;;;5054947;28;20479;-76
2022/03/16 15:31:58;;;;;;;28.50;26.20;;;12.90;99.90;;;;;;5054682;28;21064;-76
2022/03/16 15:34:26;;;;;;;26.30;24.10;;;12.90;99.90;;;;;;5055099;28;20463;-75
2022/03/16 15:36:53;;;;;;;28.27;25.83;;;12.80;99.90;;;;;;5054834;28;20548;-75
2022/03/16 15:39:20;;;;;;;26.33;24.27;;;12.80;99.90;;;;;;5054757;28;20951;-75
2022/03/16 15:44:32;;;;;;;29.57;27.03;;;13.00;99.90;;;;;;5054618;28;20420;-75
2022/03/16 15:46:59;;;;;;;29.17;26.87;;;13.00;99.90;;;;;;5054545;28;20483;-76
2022/03/16 15:49:26;;;;;;;30.37;27.57;;;12.90;99.90;;;;;;5054606;28;20444;-76
2022/03/16 15:51:54;;;;;;;29.43;26.93;;;12.90;99.90;;;;;;5054577;28;20519;-75
2022/03/16 15:54:22;;;;;;;29.10;26.50;;;12.90;99.90;;;;;;5054516;28;20452;-76
2022/03/16 15:56:50;;;;;;;30.40;27.37;;;12.90;99.90;;;;;;5054351;28;20449;-76
2022/03/16 15:59:16;;;;;;;28.27;25.97;;;12.90;99.90;;;;;;5054437;28;20498;-76
2022/03/16 16:01:46;;;;;;;30.47;27.80;;;12.90;99.90;;;;;;5054067;28;20461;-76
2022/03/16 16:04:13;;;;;;;28.87;26.40;;;12.90;99.90;;;;;;5054739;28;20461;-76
2022/03/16 16:06:41;;;;;;;29.83;27.33;;;12.80;99.90;;;;;;5054370;28;20448;-76
2022/03/16 16:09:08;;;;;;;29.23;26.67;;;12.70;99.90;;;;;;5054068;28;20549;-76
2022/03/16 16:11:35;;;;;;;28.10;25.87;;;12.70;99.90;;;;;;5054384;28;20525;-76
2022/03/16 16:14:04;;;;;;;28.97;26.57;;;12.60;99.90;;;;;;5054211;28;20456;-76
2022/03/16 16:16:30;;;;;;;28.20;25.90;;;12.60;99.90;;;;;;5054075;28;20452;-76
2022/03/16 16:18:59;;;;;;;28.63;26.03;;;12.50;99.90;;;;;;5054197;28;20506;-76
2022/03/16 16:21:26;;;;;;;28.73;26.33;;;12.60;99.90;;;;;;5054120;28;20559;-76
2022/03/16 16:23:52;;;;;;;27.43;24.93;;;12.50;99.90;;;;;;5053993;28;20455;-76
2022/03/16 16:26:19;;;;;;;28.53;25.80;;;12.50;99.90;;;;;;5053808;28;20932;-76
2022/03/16 16:28:47;;;;;;;29.57;26.97;;;12.50;99.90;;;;;;5054017;28;20488;-76
2022/03/16 16:31:13;;;;;;;29.57;27.00;;;12.50;99.90;;;;;;5053804;28;20490;-76
2022/03/16 16:33:40;;;;;;;29.70;27.40;;;12.50;99.90;;;;;;5053838;28;20444;-76
2022/03/16 16:36:15;;;;;;;27.70;25.50;;;12.40;99.90;;;;;;5053848;28;20569;-76
2022/03/16 16:38:43;;;;;;;27.97;25.67;;;12.40;99.90;;;;;;5053815;28;20443;-76
2022/03/16 16:41:10;;;;;;;26.60;24.20;;;12.40;99.90;;;;;;5053694;28;20535;-76
2022/03/16 16:43:38;;;;;;;27.30;24.50;;;12.30;99.90;;;;;;5053583;28;20471;-76
2022/03/16 16:46:10;;;;;;;27.07;24.77;;;12.30;99.90;;;;;;5053479;28;20448;-76
2022/03/16 16:48:37;;;;;;;27.63;25.00;;;12.30;99.90;;;;;;5053643;28;20487;-76
2022/03/16 16:51:05;;;;;;;27.80;24.90;;;12.30;99.90;;;;;;5053473;28;20485;-76
2022/03/16 16:53:33;;;;;;;28.53;26.13;;;12.30;99.90;;;;;;5053394;28;20460;-76
2022/03/16 16:56:02;;;;;;;28.17;25.87;;;12.20;99.90;;;;;;5053292;28;20480;-76
2022/03/16 16:58:30;;;;;;;27.67;25.10;;;12.30;99.90;;;;;;5053331;28;20456;-76
2022/03/16 17:00:57;;;;;;;28.60;26.10;;;12.20;99.90;;;;;;5052969;28;20484;-75
2022/03/16 17:03:25;;;;;;;27.83;25.53;;;12.20;99.90;;;;;;5053034;28;20459;-75
2022/03/16 17:05:53;;;;;;;29.33;26.33;;;12.20;99.90;;;;;;5053064;28;20453;-75
2022/03/16 17:08:22;;;;;;;27.03;24.57;;;12.20;99.90;;;;;;5052418;28;20457;-76
2022/03/16 17:10:52;;;;;;;27.00;24.70;;;12.20;99.90;;;;;;5052598;28;20539;-76
2022/03/16 17:13:24;;;;;;;26.73;24.17;;;12.20;99.90;;;;;;5053064;28;20514;-76
2022/03/16 17:15:52;;;;;;;29.10;26.73;;;12.10;99.90;;;;;;5052894;28;20476;-75
2022/03/16 17:18:19;;;;;;;29.00;26.30;;;12.10;99.90;;;;;;5052938;28;20461;-75
2022/03/16 17:20:48;;;;;;;27.20;24.70;;;12.00;99.90;;;;;;5052846;28;20559;-76
2022/03/16 17:23:18;;;;;;;28.07;25.47;;;12.00;99.90;;;;;;5052680;28;20465;-76
2022/03/16 17:25:45;;;;;;;28.80;26.40;;;12.00;99.90;;;;;;5052723;28;20463;-76
2022/03/16 17:28:14;;;;;;;27.73;25.33;;;11.90;99.90;;;;;;5052980;28;20549;-77
2022/03/16 17:30:42;;;;;;;26.90;24.50;;;11.90;99.90;;;;;;5052615;28;20937;-75
2022/03/16 17:33:09;;;;;;;28.63;25.93;;;11.90;99.90;;;;;;5050953;28;20659;-76
2022/03/16 17:35:36;;;;;;;30.23;27.13;;;11.80;99.90;;;;;;5051986;28;20452;-76
2022/03/16 17:38:05;;;;;;;29.53;26.87;;;11.80;99.90;;;;;;5051862;28;20456;-76
2022/03/16 17:40:34;;;;;;;28.80;26.40;;;11.80;99.90;;;;;;5052716;28;20454;-76
2022/03/16 17:45:47;;;;;;;28.90;26.40;;;11.80;99.90;;;;;;5052397;28;20424;-76
2022/03/16 17:48:15;;;;;;;29.27;26.63;;;11.80;99.90;;;;;;5052441;28;20451;-76
2022/03/16 17:50:46;;;;;;;27.43;24.90;;;11.70;99.90;;;;;;5052261;28;20464;-76
2022/03/16 17:53:14;;;;;;;30.30;27.20;;;11.70;99.90;;;;;;5052630;28;20453;-76
